sensor_id;sensor_type;location;lat;lon;timestamp;P1;durP1;ratioP1;P2;durP2;ratioP2
11042;SDS011;5574;48.786;10.120;2024-03-23T00:53:44;4.83;;;4.30;;
11042;SDS011;5574;48.786;10.120;2024-03-23T00:56:25;6.23;;;4.70;;
11042;SDS011;5574;48.786;10.120;2024-03-23T00:59:06;4.77;;;4.17;;
11042;SDS011;5574;48.786;10.120;2024-03-23T01:01:47;6.97;;;4.13;;
11042;SDS011;5574;48.786;10.120;2024-03-23T01:04:28;4.80;;;4.00;;
11042;SDS011;5574;48.786;10.120;2024-03-23T01:07:09;5.73;;;4.23;;
11042;SDS011;5574;48.786;10.120;2024-03-23T01:09:52;6.80;;;4.80;;
11042;SDS011;5574;48.786;10.120;2024-03-23T01:12:33;6.97;;;4.30;;
11042;SDS011;5574;48.786;10.120;2024-03-23T01:15:14;4.70;;;4.03;;
11042;SDS011;5574;48.786;10.120;2024-03-23T01:17:55;6.63;;;4.73;;
11042;SDS011;5574;48.786;10.120;2024-03-23T01:20:36;5.27;;;4.23;;
11042;SDS011;5574;48.786;10.120;2024-03-23T01:23:17;4.73;;;4.27;;
11042;SDS011;5574;48.786;10.120;2024-03-23T01:26:00;5.77;;;4.30;;
11042;SDS011;5574;48.786;10.120;2024-03-23T01:28:41;4.83;;;4.37;;
11042;SDS011;5574;48.786;10.120;2024-03-23T01:31:22;5.40;;;4.40;;
11042;SDS011;5574;48.786;10.120;2024-03-23T01:34:03;6.33;;;4.40;;
11042;SDS011;5574;48.786;10.120;2024-03-23T01:36:44;6.23;;;4.63;;
11042;SDS011;5574;48.786;10.120;2024-03-23T01:39:25;8.53;;;4.90;;
11042;SDS011;5574;48.786;10.120;2024-03-23T01:42:08;7.23;;;4.77;;
11042;SDS011;5574;48.786;10.120;2024-03-23T01:44:49;7.43;;;4.63;;
11042;SDS011;5574;48.786;10.120;2024-03-23T01:47:30;7.43;;;4.90;;
11042;SDS011;5574;48.786;10.120;2024-03-23T01:50:11;4.80;;;4.30;;
11042;SDS011;5574;48.786;10.120;2024-03-23T01:52:53;6.30;;;4.77;;
11042;SDS011;5574;48.786;10.120;2024-03-23T01:55:34;5.70;;;4.83;;
11042;SDS011;5574;48.786;10.120;2024-03-23T01:58:17;5.83;;;4.60;;
11042;SDS011;5574;48.786;10.120;2024-03-23T02:00:58;6.23;;;4.60;;
11042;SDS011;5574;48.786;10.120;2024-03-23T02:03:39;7.70;;;4.33;;
11042;SDS011;5574;48.786;10.120;2024-03-23T02:06:20;5.30;;;4.80;;
11042;SDS011;5574;48.786;10.120;2024-03-23T02:09:01;7.23;;;5.30;;
11042;SDS011;5574;48.786;10.120;2024-03-23T02:11:43;7.03;;;5.00;;
11042;SDS011;5574;48.786;10.120;2024-03-23T02:14:27;6.53;;;5.40;;
11042;SDS011;5574;48.786;10.120;2024-03-23T02:17:08;5.93;;;4.70;;
11042;SDS011;5574;48.786;10.120;2024-03-23T02:19:50;5.67;;;4.20;;
11042;SDS011;5574;48.786;10.120;2024-03-23T02:22:35;4.83;;;4.30;;
11042;SDS011;5574;48.786;10.120;2024-03-23T02:25:19;7.30;;;4.90;;
11042;SDS011;5574;48.786;10.120;2024-03-23T02:28:00;6.73;;;4.53;;
11042;SDS011;5574;48.786;10.120;2024-03-23T02:30:41;6.00;;;4.43;;
11042;SDS011;5574;48.786;10.120;2024-03-23T02:33:22;7.10;;;4.20;;
11042;SDS011;5574;48.786;10.120;2024-03-23T02:36:03;4.40;;;3.93;;
11042;SDS011;5574;48.786;10.120;2024-03-23T02:38:44;8.23;;;4.50;;
11042;SDS011;5574;48.786;10.120;2024-03-23T02:41:28;6.63;;;4.50;;
11042;SDS011;5574;48.786;10.120;2024-03-23T02:44:08;6.50;;;4.43;;
11042;SDS011;5574;48.786;10.120;2024-03-23T02:46:50;5.07;;;4.10;;
11042;SDS011;5574;48.786;10.120;2024-03-23T02:49:31;4.30;;;3.90;;
11042;SDS011;5574;48.786;10.120;2024-03-23T02:52:11;4.70;;;3.60;;
11042;SDS011;5574;48.786;10.120;2024-03-23T02:54:52;5.27;;;3.43;;
11042;SDS011;5574;48.786;10.120;2024-03-23T02:57:36;4.57;;;3.83;;
11042;SDS011;5574;48.786;10.120;2024-03-23T03:00:17;4.83;;;3.90;;
11042;SDS011;5574;48.786;10.120;2024-03-23T03:02:58;6.27;;;3.47;;
11042;SDS011;5574;48.786;10.120;2024-03-23T03:05:39;4.40;;;3.23;;
11042;SDS011;5574;48.786;10.120;2024-03-23T03:08:20;5.17;;;3.23;;
11042;SDS011;5574;48.786;10.120;2024-03-23T03:11:01;4.57;;;3.30;;
11042;SDS011;5574;48.786;10.120;2024-03-23T03:13:44;8.77;;;3.73;;
11042;SDS011;5574;48.786;10.120;2024-03-23T03:16:25;4.70;;;3.70;;
11042;SDS011;5574;48.786;10.120;2024-03-23T03:19:06;3.73;;;3.37;;
11042;SDS011;5574;48.786;10.120;2024-03-23T03:21:47;2.97;;;2.77;;
11042;SDS011;5574;48.786;10.120;2024-03-23T03:24:28;2.93;;;2.63;;
11042;SDS011;5574;48.786;10.120;2024-03-23T03:27:09;2.80;;;2.37;;
11042;SDS011;5574;48.786;10.120;2024-03-23T03:29:52;3.73;;;2.67;;
11042;SDS011;5574;48.786;10.120;2024-03-23T03:32:33;2.60;;;2.40;;
11042;SDS011;5574;48.786;10.120;2024-03-23T03:35:14;2.60;;;2.40;;
11042;SDS011;5574;48.786;10.120;2024-03-23T03:37:55;3.63;;;2.63;;
11042;SDS011;5574;48.786;10.120;2024-03-23T03:40:36;3.27;;;2.97;;
11042;SDS011;5574;48.786;10.120;2024-03-23T03:43:17;3.60;;;2.73;;
11042;SDS011;5574;48.786;10.120;2024-03-23T03:46:01;2.80;;;2.57;;
11042;SDS011;5574;48.786;10.120;2024-03-23T03:48:42;2.80;;;2.60;;
11042;SDS011;5574;48.786;10.120;2024-03-23T03:51:24;2.80;;;2.60;;
11042;SDS011;5574;48.786;10.120;2024-03-23T03:54:04;2.93;;;2.50;;
11042;SDS011;5574;48.786;10.120;2024-03-23T03:56:45;2.87;;;2.67;;
11042;SDS011;5574;48.786;10.120;2024-03-23T03:59:26;3.30;;;2.70;;
11042;SDS011;5574;48.786;10.120;2024-03-23T04:02:10;4.67;;;2.90;;
11042;SDS011;5574;48.786;10.120;2024-03-23T04:04:51;2.93;;;2.57;;
11042;SDS011;5574;48.786;10.120;2024-03-23T04:07:32;3.00;;;2.40;;
11042;SDS011;5574;48.786;10.120;2024-03-23T04:10:13;4.23;;;2.30;;
11042;SDS011;5574;48.786;10.120;2024-03-23T04:12:54;4.47;;;2.80;;
11042;SDS011;5574;48.786;10.120;2024-03-23T04:15:35;3.10;;;2.40;;
11042;SDS011;5574;48.786;10.120;2024-03-23T04:18:18;3.77;;;2.67;;
11042;SDS011;5574;48.786;10.120;2024-03-23T04:20:59;4.00;;;2.47;;
11042;SDS011;5574;48.786;10.120;2024-03-23T04:23:40;2.97;;;2.40;;
11042;SDS011;5574;48.786;10.120;2024-03-23T04:26:21;2.60;;;2.40;;
11042;SDS011;5574;48.786;10.120;2024-03-23T04:29:02;4.07;;;2.77;;
11042;SDS011;5574;48.786;10.120;2024-03-23T04:31:43;4.27;;;2.40;;
11042;SDS011;5574;48.786;10.120;2024-03-23T04:34:26;2.50;;;2.30;;
11042;SDS011;5574;48.786;10.120;2024-03-23T04:37:07;2.37;;;2.17;;
11042;SDS011;5574;48.786;10.120;2024-03-23T04:39:48;3.20;;;2.30;;
11042;SDS011;5574;48.786;10.120;2024-03-23T04:42:29;3.20;;;2.23;;
11042;SDS011;5574;48.786;10.120;2024-03-23T04:45:10;3.03;;;2.37;;
11042;SDS011;5574;48.786;10.120;2024-03-23T04:47:51;4.10;;;2.47;;
11042;SDS011;5574;48.786;10.120;2024-03-23T04:50:34;2.90;;;2.40;;
11042;SDS011;5574;48.786;10.120;2024-03-23T04:53:15;3.10;;;2.30;;
11042;SDS011;5574;48.786;10.120;2024-03-23T04:55:56;4.33;;;2.40;;
11042;SDS011;5574;48.786;10.120;2024-03-23T04:58:37;3.80;;;2.53;;
11042;SDS011;5574;48.786;10.120;2024-03-23T05:01:18;4.03;;;2.50;;
11042;SDS011;5574;48.786;10.120;2024-03-23T05:03:59;3.47;;;2.40;;
11042;SDS011;5574;48.786;10.120;2024-03-23T05:06:43;3.40;;;2.63;;
11042;SDS011;5574;48.786;10.120;2024-03-23T05:09:24;5.60;;;3.03;;
11042;SDS011;5574;48.786;10.120;2024-03-23T05:12:05;3.00;;;2.40;;
11042;SDS011;5574;48.786;10.120;2024-03-23T05:14:46;4.20;;;2.60;;
11042;SDS011;5574;48.786;10.120;2024-03-23T05:17:27;4.10;;;3.40;;
11042;SDS011;5574;48.786;10.120;2024-03-23T05:20:09;3.03;;;2.77;;
11042;SDS011;5574;48.786;10.120;2024-03-23T05:22:52;2.97;;;2.67;;
11042;SDS011;5574;48.786;10.120;2024-03-23T05:25:34;3.57;;;2.50;;
11042;SDS011;5574;48.786;10.120;2024-03-23T05:28:15;4.03;;;2.90;;
11042;SDS011;5574;48.786;10.120;2024-03-23T05:30:56;3.50;;;2.77;;
11042;SDS011;5574;48.786;10.120;2024-03-23T05:33:37;6.67;;;2.90;;
11042;SDS011;5574;48.786;10.120;2024-03-23T05:36:18;4.13;;;3.10;;
11042;SDS011;5574;48.786;10.120;2024-03-23T05:39:01;3.57;;;2.97;;
11042;SDS011;5574;48.786;10.120;2024-03-23T05:41:42;5.07;;;3.40;;
11042;SDS011;5574;48.786;10.120;2024-03-23T05:44:24;4.23;;;2.90;;
11042;SDS011;5574;48.786;10.120;2024-03-23T05:47:05;2.93;;;2.60;;
11042;SDS011;5574;48.786;10.120;2024-03-23T05:49:46;3.13;;;2.83;;
11042;SDS011;5574;48.786;10.120;2024-03-23T05:52:27;4.57;;;4.17;;
11042;SDS011;5574;48.786;10.120;2024-03-23T05:55:11;5.70;;;5.10;;
11042;SDS011;5574;48.786;10.120;2024-03-23T05:57:52;6.13;;;5.13;;
11042;SDS011;5574;48.786;10.120;2024-03-23T06:00:33;8.60;;;6.60;;
11042;SDS011;5574;48.786;10.120;2024-03-23T06:03:14;8.13;;;6.80;;
11042;SDS011;5574;48.786;10.120;2024-03-23T06:05:55;11.07;;;8.37;;
11042;SDS011;5574;48.786;10.120;2024-03-23T06:08:36;10.63;;;7.90;;
11042;SDS011;5574;48.786;10.120;2024-03-23T06:11:20;9.57;;;7.57;;
11042;SDS011;5574;48.786;10.120;2024-03-23T06:14:01;8.63;;;7.70;;
11042;SDS011;5574;48.786;10.120;2024-03-23T06:16:41;9.80;;;8.50;;
11042;SDS011;5574;48.786;10.120;2024-03-23T06:19:22;8.07;;;7.27;;
11042;SDS011;5574;48.786;10.120;2024-03-23T06:22:03;10.23;;;8.60;;
11042;SDS011;5574;48.786;10.120;2024-03-23T06:24:44;8.90;;;8.00;;
11042;SDS011;5574;48.786;10.120;2024-03-23T06:27:28;8.63;;;7.83;;
11042;SDS011;5574;48.786;10.120;2024-03-23T06:30:09;9.70;;;8.40;;
11042;SDS011;5574;48.786;10.120;2024-03-23T06:32:51;8.90;;;7.50;;
11042;SDS011;5574;48.786;10.120;2024-03-23T06:35:32;8.60;;;7.20;;
11042;SDS011;5574;48.786;10.120;2024-03-23T06:38:16;7.00;;;6.30;;
11042;SDS011;5574;48.786;10.120;2024-03-23T06:41:02;6.80;;;5.47;;
11042;SDS011;5574;48.786;10.120;2024-03-23T06:43:45;6.97;;;5.43;;
11042;SDS011;5574;48.786;10.120;2024-03-23T06:46:26;5.47;;;4.80;;
11042;SDS011;5574;48.786;10.120;2024-03-23T06:49:07;5.50;;;4.40;;
11042;SDS011;5574;48.786;10.120;2024-03-23T06:51:51;4.07;;;3.63;;
11042;SDS011;5574;48.786;10.120;2024-03-23T06:54:32;3.83;;;3.47;;
11042;SDS011;5574;48.786;10.120;2024-03-23T06:57:13;3.53;;;3.23;;
11042;SDS011;5574;48.786;10.120;2024-03-23T06:59:58;3.37;;;3.07;;
11042;SDS011;5574;48.786;10.120;2024-03-23T07:02:39;3.63;;;3.20;;
11042;SDS011;5574;48.786;10.120;2024-03-23T07:05:27;4.23;;;3.30;;
11042;SDS011;5574;48.786;10.120;2024-03-23T07:08:11;3.47;;;3.17;;
11042;SDS011;5574;48.786;10.120;2024-03-23T07:10:53;3.30;;;3.00;;
11042;SDS011;5574;48.786;10.120;2024-03-23T07:13:34;4.07;;;3.03;;
11042;SDS011;5574;48.786;10.120;2024-03-23T07:16:18;3.20;;;2.90;;
11042;SDS011;5574;48.786;10.120;2024-03-23T07:19:01;3.57;;;2.80;;
11042;SDS011;5574;48.786;10.120;2024-03-23T07:21:42;3.40;;;2.90;;
11042;SDS011;5574;48.786;10.120;2024-03-23T07:24:24;3.40;;;3.10;;
11042;SDS011;5574;48.786;10.120;2024-03-23T07:27:04;2.97;;;2.67;;
11042;SDS011;5574;48.786;10.120;2024-03-23T07:29:45;2.60;;;2.40;;
11042;SDS011;5574;48.786;10.120;2024-03-23T07:32:29;3.97;;;2.20;;
11042;SDS011;5574;48.786;10.120;2024-03-23T07:35:10;3.53;;;2.50;;
11042;SDS011;5574;48.786;10.120;2024-03-23T07:37:51;2.40;;;2.20;;
11042;SDS011;5574;48.786;10.120;2024-03-23T07:40:32;2.70;;;2.50;;
11042;SDS011;5574;48.786;10.120;2024-03-23T07:43:12;3.00;;;2.13;;
11042;SDS011;5574;48.786;10.120;2024-03-23T07:45:53;1.73;;;1.63;;
11042;SDS011;5574;48.786;10.120;2024-03-23T07:48:37;2.20;;;2.00;;
11042;SDS011;5574;48.786;10.120;2024-03-23T07:51:19;5.17;;;2.37;;
11042;SDS011;5574;48.786;10.120;2024-03-23T07:54:01;3.13;;;1.90;;
11042;SDS011;5574;48.786;10.120;2024-03-23T07:56:42;2.13;;;1.60;;
11042;SDS011;5574;48.786;10.120;2024-03-23T07:59:23;1.73;;;1.63;;
11042;SDS011;5574;48.786;10.120;2024-03-23T08:02:04;1.67;;;1.57;;
11042;SDS011;5574;48.786;10.120;2024-03-23T08:04:48;1.50;;;1.40;;
11042;SDS011;5574;48.786;10.120;2024-03-23T08:07:29;2.40;;;1.30;;
11042;SDS011;5574;48.786;10.120;2024-03-23T08:10:10;1.57;;;1.47;;
11042;SDS011;5574;48.786;10.120;2024-03-23T08:12:50;1.37;;;1.20;;
11042;SDS011;5574;48.786;10.120;2024-03-23T08:15:31;1.30;;;1.20;;
11042;SDS011;5574;48.786;10.120;2024-03-23T08:18:13;2.60;;;1.60;;
11042;SDS011;5574;48.786;10.120;2024-03-23T08:21:00;2.40;;;2.20;;
11042;SDS011;5574;48.786;10.120;2024-03-23T08:23:42;1.00;;;1.00;;
11042;SDS011;5574;48.786;10.120;2024-03-23T08:26:23;1.10;;;1.10;;
11042;SDS011;5574;48.786;10.120;2024-03-23T08:29:04;1.10;;;1.10;;
11042;SDS011;5574;48.786;10.120;2024-03-23T08:31:45;1.10;;;1.10;;
11042;SDS011;5574;48.786;10.120;2024-03-23T08:34:26;1.37;;;1.27;;
11042;SDS011;5574;48.786;10.120;2024-03-23T08:37:09;1.53;;;1.43;;
11042;SDS011;5574;48.786;10.120;2024-03-23T08:39:50;1.10;;;1.00;;
11042;SDS011;5574;48.786;10.120;2024-03-23T08:42:31;1.07;;;1.07;;
11042;SDS011;5574;48.786;10.120;2024-03-23T08:45:12;1.40;;;1.30;;
11042;SDS011;5574;48.786;10.120;2024-03-23T08:47:53;1.50;;;1.40;;
11042;SDS011;5574;48.786;10.120;2024-03-23T08:50:34;1.47;;;1.20;;
11042;SDS011;5574;48.786;10.120;2024-03-23T08:53:18;1.10;;;1.10;;
11042;SDS011;5574;48.786;10.120;2024-03-23T08:55:59;1.80;;;1.70;;
11042;SDS011;5574;48.786;10.120;2024-03-23T08:58:40;1.77;;;1.67;;
11042;SDS011;5574;48.786;10.120;2024-03-23T09:01:21;1.53;;;1.43;;
11042;SDS011;5574;48.786;10.120;2024-03-23T09:04:03;2.00;;;1.90;;
11042;SDS011;5574;48.786;10.120;2024-03-23T09:06:44;0.80;;;0.80;;
11042;SDS011;5574;48.786;10.120;2024-03-23T09:09:27;0.97;;;0.90;;
11042;SDS011;5574;48.786;10.120;2024-03-23T09:12:08;0.70;;;0.70;;
11042;SDS011;5574;48.786;10.120;2024-03-23T09:14:49;2.03;;;0.80;;
11042;SDS011;5574;48.786;10.120;2024-03-23T09:17:30;0.70;;;0.70;;
11042;SDS011;5574;48.786;10.120;2024-03-23T09:20:11;0.90;;;0.70;;
11042;SDS011;5574;48.786;10.120;2024-03-23T09:22:52;0.67;;;0.67;;
11042;SDS011;5574;48.786;10.120;2024-03-23T09:25:38;1.33;;;0.70;;
11042;SDS011;5574;48.786;10.120;2024-03-23T09:28:19;0.43;;;0.43;;
11042;SDS011;5574;48.786;10.120;2024-03-23T09:31:02;0.40;;;0.40;;
11042;SDS011;5574;48.786;10.120;2024-03-23T09:33:43;0.50;;;0.50;;
11042;SDS011;5574;48.786;10.120;2024-03-23T09:36:24;0.60;;;0.60;;
11042;SDS011;5574;48.786;10.120;2024-03-23T09:39:06;0.70;;;0.70;;
11042;SDS011;5574;48.786;10.120;2024-03-23T09:41:50;1.03;;;0.60;;
11042;SDS011;5574;48.786;10.120;2024-03-23T09:44:30;0.50;;;0.50;;
11042;SDS011;5574;48.786;10.120;2024-03-23T09:47:11;0.67;;;0.67;;
11042;SDS011;5574;48.786;10.120;2024-03-23T09:49:53;0.80;;;0.80;;
11042;SDS011;5574;48.786;10.120;2024-03-23T09:52:34;1.00;;;1.00;;
11042;SDS011;5574;48.786;10.120;2024-03-23T09:55:15;1.40;;;1.30;;
11042;SDS011;5574;48.786;10.120;2024-03-23T09:57:59;1.47;;;1.20;;
11042;SDS011;5574;48.786;10.120;2024-03-23T10:00:40;1.30;;;1.17;;
11042;SDS011;5574;48.786;10.120;2024-03-23T10:03:21;1.00;;;1.00;;
11042;SDS011;5574;48.786;10.120;2024-03-23T10:06:02;1.10;;;1.10;;
11042;SDS011;5574;48.786;10.120;2024-03-23T10:08:44;1.43;;;1.33;;
11042;SDS011;5574;48.786;10.120;2024-03-23T10:11:25;2.00;;;1.53;;
11042;SDS011;5574;48.786;10.120;2024-03-23T10:14:08;2.70;;;2.23;;
11042;SDS011;5574;48.786;10.120;2024-03-23T10:16:49;2.10;;;2.00;;
11042;SDS011;5574;48.786;10.120;2024-03-23T10:19:30;3.50;;;2.37;;
11042;SDS011;5574;48.786;10.120;2024-03-23T10:22:13;2.27;;;2.07;;
11042;SDS011;5574;48.786;10.120;2024-03-23T10:24:55;3.07;;;2.20;;
11042;SDS011;5574;48.786;10.120;2024-03-23T10:27:55;3.77;;;2.60;;
11042;SDS011;5574;48.786;10.120;2024-03-23T10:30:41;3.70;;;2.47;;
11042;SDS011;5574;48.786;10.120;2024-03-23T10:33:22;3.13;;;2.53;;
11042;SDS011;5574;48.786;10.120;2024-03-23T10:36:04;3.03;;;2.60;;
11042;SDS011;5574;48.786;10.120;2024-03-23T10:38:47;3.23;;;2.27;;
11042;SDS011;5574;48.786;10.120;2024-03-23T10:41:31;3.63;;;2.73;;
11042;SDS011;5574;48.786;10.120;2024-03-23T10:44:13;3.37;;;2.67;;
11042;SDS011;5574;48.786;10.120;2024-03-23T10:46:57;4.53;;;2.50;;
11042;SDS011;5574;48.786;10.120;2024-03-23T10:49:39;4.73;;;2.23;;
11042;SDS011;5574;48.786;10.120;2024-03-23T10:52:20;4.53;;;2.50;;
11042;SDS011;5574;48.786;10.120;2024-03-23T10:55:01;3.83;;;2.80;;
11042;SDS011;5574;48.786;10.120;2024-03-23T10:57:48;3.83;;;2.50;;
11042;SDS011;5574;48.786;10.120;2024-03-23T11:00:31;4.17;;;3.03;;
11042;SDS011;5574;48.786;10.120;2024-03-23T11:12:26;3.37;;;2.50;;
11042;SDS011;5574;48.786;10.120;2024-03-23T11:15:10;3.10;;;2.47;;
11042;SDS011;5574;48.786;10.120;2024-03-23T11:18:05;2.47;;;2.20;;
11042;SDS011;5574;48.786;10.120;2024-03-23T11:20:49;4.97;;;2.70;;
11042;SDS011;5574;48.786;10.120;2024-03-23T11:23:30;4.30;;;2.80;;
11042;SDS011;5574;48.786;10.120;2024-03-23T11:26:11;4.03;;;2.53;;
11042;SDS011;5574;48.786;10.120;2024-03-23T11:28:56;4.63;;;2.60;;
11042;SDS011;5574;48.786;10.120;2024-03-23T11:31:49;2.93;;;2.30;;
11042;SDS011;5574;48.786;10.120;2024-03-23T11:34:31;3.10;;;2.20;;
11042;SDS011;5574;48.786;10.120;2024-03-23T11:37:17;2.90;;;2.47;;
11042;SDS011;5574;48.786;10.120;2024-03-23T11:39:58;5.87;;;3.27;;
11042;SDS011;5574;48.786;10.120;2024-03-23T11:42:39;3.57;;;2.80;;
11042;SDS011;5574;48.786;10.120;2024-03-23T11:45:19;3.30;;;2.43;;
11042;SDS011;5574;48.786;10.120;2024-03-23T11:48:07;3.17;;;2.30;;
11042;SDS011;5574;48.786;10.120;2024-03-23T11:50:50;3.00;;;2.13;;
11042;SDS011;5574;48.786;10.120;2024-03-23T11:53:36;4.97;;;2.83;;
11042;SDS011;5574;48.786;10.120;2024-03-23T11:56:17;4.77;;;2.70;;
11042;SDS011;5574;48.786;10.120;2024-03-23T11:58:58;3.43;;;2.50;;
11042;SDS011;5574;48.786;10.120;2024-03-23T12:01:39;2.80;;;2.30;;
11042;SDS011;5574;48.786;10.120;2024-03-23T12:04:24;2.80;;;2.37;;
11042;SDS011;5574;48.786;10.120;2024-03-23T12:07:09;3.57;;;2.47;;
11042;SDS011;5574;48.786;10.120;2024-03-23T12:10:04;4.07;;;2.30;;
11042;SDS011;5574;48.786;10.120;2024-03-23T12:12:46;3.30;;;2.07;;
11042;SDS011;5574;48.786;10.120;2024-03-23T12:15:41;2.00;;;1.90;;
11042;SDS011;5574;48.786;10.120;2024-03-23T12:18:23;2.57;;;2.20;;
11042;SDS011;5574;48.786;10.120;2024-03-23T12:21:04;3.70;;;2.23;;
11042;SDS011;5574;48.786;10.120;2024-03-23T12:23:45;3.40;;;2.20;;
11042;SDS011;5574;48.786;10.120;2024-03-23T12:26:29;2.40;;;2.20;;
11042;SDS011;5574;48.786;10.120;2024-03-23T12:29:10;2.10;;;1.90;;
11042;SDS011;5574;48.786;10.120;2024-03-23T12:31:51;3.10;;;2.00;;
11042;SDS011;5574;48.786;10.120;2024-03-23T12:34:32;3.30;;;1.73;;
11042;SDS011;5574;48.786;10.120;2024-03-23T12:37:13;4.37;;;2.10;;
11042;SDS011;5574;48.786;10.120;2024-03-23T12:39:54;2.93;;;2.20;;
11042;SDS011;5574;48.786;10.120;2024-03-23T12:42:37;3.37;;;1.80;;
11042;SDS011;5574;48.786;10.120;2024-03-23T12:45:18;4.03;;;1.90;;
11042;SDS011;5574;48.786;10.120;2024-03-23T12:47:59;2.57;;;1.77;;
11042;SDS011;5574;48.786;10.120;2024-03-23T12:50:40;4.30;;;1.73;;
11042;SDS011;5574;48.786;10.120;2024-03-23T12:53:21;3.17;;;1.63;;
11042;SDS011;5574;48.786;10.120;2024-03-23T12:56:02;5.33;;;1.37;;
11042;SDS011;5574;48.786;10.120;2024-03-23T12:58:46;7.53;;;1.60;;
11042;SDS011;5574;48.786;10.120;2024-03-23T13:01:28;2.47;;;1.50;;
11042;SDS011;5574;48.786;10.120;2024-03-23T13:04:09;3.57;;;2.13;;
11042;SDS011;5574;48.786;10.120;2024-03-23T13:06:50;4.13;;;1.80;;
11042;SDS011;5574;48.786;10.120;2024-03-23T13:09:31;1.97;;;1.40;;
11042;SDS011;5574;48.786;10.120;2024-03-23T13:12:12;3.10;;;1.50;;
11042;SDS011;5574;48.786;10.120;2024-03-23T13:14:55;3.57;;;1.50;;
11042;SDS011;5574;48.786;10.120;2024-03-23T13:17:36;3.87;;;1.60;;
11042;SDS011;5574;48.786;10.120;2024-03-23T13:20:17;3.23;;;1.40;;
11042;SDS011;5574;48.786;10.120;2024-03-23T13:22:58;2.33;;;1.40;;
11042;SDS011;5574;48.786;10.120;2024-03-23T13:25:39;3.07;;;1.80;;
11042;SDS011;5574;48.786;10.120;2024-03-23T13:28:20;2.87;;;1.70;;
11042;SDS011;5574;48.786;10.120;2024-03-23T13:31:04;3.20;;;2.23;;
11042;SDS011;5574;48.786;10.120;2024-03-23T13:33:44;2.63;;;1.70;;
11042;SDS011;5574;48.786;10.120;2024-03-23T13:36:25;3.30;;;1.53;;
11042;SDS011;5574;48.786;10.120;2024-03-23T13:39:07;2.07;;;1.40;;
11042;SDS011;5574;48.786;10.120;2024-03-23T13:41:49;2.50;;;1.50;;
11042;SDS011;5574;48.786;10.120;2024-03-23T13:44:30;2.63;;;1.70;;
11042;SDS011;5574;48.786;10.120;2024-03-23T13:47:13;4.50;;;2.00;;
11042;SDS011;5574;48.786;10.120;2024-03-23T13:49:54;4.23;;;1.90;;
11042;SDS011;5574;48.786;10.120;2024-03-23T13:52:35;2.80;;;1.60;;
11042;SDS011;5574;48.786;10.120;2024-03-23T13:55:16;3.70;;;1.40;;
11042;SDS011;5574;48.786;10.120;2024-03-23T13:57:57;3.13;;;1.63;;
11042;SDS011;5574;48.786;10.120;2024-03-23T14:00:38;3.67;;;1.80;;
11042;SDS011;5574;48.786;10.120;2024-03-23T14:03:22;2.33;;;1.33;;
11042;SDS011;5574;48.786;10.120;2024-03-23T14:06:03;2.77;;;1.77;;
11042;SDS011;5574;48.786;10.120;2024-03-23T14:08:44;3.97;;;1.77;;
11042;SDS011;5574;48.786;10.120;2024-03-23T14:11:25;2.93;;;1.87;;
11042;SDS011;5574;48.786;10.120;2024-03-23T14:14:06;5.87;;;1.77;;
11042;SDS011;5574;48.786;10.120;2024-03-23T14:16:48;2.70;;;1.80;;
11042;SDS011;5574;48.786;10.120;2024-03-23T14:19:31;3.03;;;1.53;;
11042;SDS011;5574;48.786;10.120;2024-03-23T14:22:12;3.20;;;1.80;;
11042;SDS011;5574;48.786;10.120;2024-03-23T14:24:53;5.77;;;1.90;;
11042;SDS011;5574;48.786;10.120;2024-03-23T14:27:34;3.07;;;1.50;;
11042;SDS011;5574;48.786;10.120;2024-03-23T14:30:16;2.73;;;1.80;;
11042;SDS011;5574;48.786;10.120;2024-03-23T14:32:57;3.40;;;1.43;;
11042;SDS011;5574;48.786;10.120;2024-03-23T14:35:40;2.50;;;1.63;;
11042;SDS011;5574;48.786;10.120;2024-03-23T14:38:21;3.63;;;1.80;;
11042;SDS011;5574;48.786;10.120;2024-03-23T14:41:03;4.93;;;1.80;;
11042;SDS011;5574;48.786;10.120;2024-03-23T14:43:44;2.57;;;1.87;;
11042;SDS011;5574;48.786;10.120;2024-03-23T14:46:25;6.20;;;1.90;;
11042;SDS011;5574;48.786;10.120;2024-03-23T14:49:05;4.37;;;2.30;;
11042;SDS011;5574;48.786;10.120;2024-03-23T14:51:49;4.83;;;1.77;;
11042;SDS011;5574;48.786;10.120;2024-03-23T14:54:30;2.50;;;1.60;;
11042;SDS011;5574;48.786;10.120;2024-03-23T14:57:11;2.80;;;1.70;;
11042;SDS011;5574;48.786;10.120;2024-03-23T14:59:52;2.07;;;1.50;;
11042;SDS011;5574;48.786;10.120;2024-03-23T15:02:33;2.83;;;1.20;;
11042;SDS011;5574;48.786;10.120;2024-03-23T15:05:14;3.13;;;1.20;;
11042;SDS011;5574;48.786;10.120;2024-03-23T15:07:58;1.83;;;1.10;;
11042;SDS011;5574;48.786;10.120;2024-03-23T15:10:39;3.23;;;1.00;;
11042;SDS011;5574;48.786;10.120;2024-03-23T15:13:20;5.10;;;1.27;;
11042;SDS011;5574;48.786;10.120;2024-03-23T15:16:02;2.47;;;1.20;;
11042;SDS011;5574;48.786;10.120;2024-03-23T15:18:43;2.63;;;1.40;;
11042;SDS011;5574;48.786;10.120;2024-03-23T15:21:24;2.80;;;1.40;;
11042;SDS011;5574;48.786;10.120;2024-03-23T15:24:08;1.00;;;1.00;;
11042;SDS011;5574;48.786;10.120;2024-03-23T15:26:50;1.30;;;1.10;;
11042;SDS011;5574;48.786;10.120;2024-03-23T15:29:31;2.57;;;1.60;;
11042;SDS011;5574;48.786;10.120;2024-03-23T15:32:12;1.27;;;1.00;;
11042;SDS011;5574;48.786;10.120;2024-03-23T15:34:53;1.23;;;1.13;;
11042;SDS011;5574;48.786;10.120;2024-03-23T15:37:34;1.67;;;1.00;;
11042;SDS011;5574;48.786;10.120;2024-03-23T15:40:18;0.63;;;0.60;;
11042;SDS011;5574;48.786;10.120;2024-03-23T15:42:59;1.23;;;1.00;;
11042;SDS011;5574;48.786;10.120;2024-03-23T15:45:40;1.10;;;0.83;;
11042;SDS011;5574;48.786;10.120;2024-03-23T15:48:20;1.33;;;0.80;;
11042;SDS011;5574;48.786;10.120;2024-03-23T15:51:02;0.77;;;0.57;;
11042;SDS011;5574;48.786;10.120;2024-03-23T15:53:44;1.67;;;1.00;;
11042;SDS011;5574;48.786;10.120;2024-03-23T15:56:27;1.90;;;1.10;;
11042;SDS011;5574;48.786;10.120;2024-03-23T15:59:09;3.30;;;2.07;;
11042;SDS011;5574;48.786;10.120;2024-03-23T16:01:50;2.60;;;1.00;;
11042;SDS011;5574;48.786;10.120;2024-03-23T16:04:31;1.20;;;1.00;;
11042;SDS011;5574;48.786;10.120;2024-03-23T16:07:12;1.37;;;0.90;;
11042;SDS011;5574;48.786;10.120;2024-03-23T16:09:53;1.83;;;1.17;;
11042;SDS011;5574;48.786;10.120;2024-03-23T16:12:36;2.87;;;1.33;;
11042;SDS011;5574;48.786;10.120;2024-03-23T16:15:18;3.20;;;1.40;;
11042;SDS011;5574;48.786;10.120;2024-03-23T16:17:59;1.30;;;1.00;;
11042;SDS011;5574;48.786;10.120;2024-03-23T16:20:40;1.80;;;1.40;;
11042;SDS011;5574;48.786;10.120;2024-03-23T16:23:21;2.73;;;1.37;;
11042;SDS011;5574;48.786;10.120;2024-03-23T16:26:02;1.57;;;1.10;;
11042;SDS011;5574;48.786;10.120;2024-03-23T16:28:46;2.70;;;1.13;;
11042;SDS011;5574;48.786;10.120;2024-03-23T16:31:27;2.43;;;1.50;;
11042;SDS011;5574;48.786;10.120;2024-03-23T16:34:08;1.63;;;1.40;;
11042;SDS011;5574;48.786;10.120;2024-03-23T16:36:49;1.70;;;1.20;;
11042;SDS011;5574;48.786;10.120;2024-03-23T16:39:30;2.20;;;1.30;;
11042;SDS011;5574;48.786;10.120;2024-03-23T16:42:11;1.27;;;1.00;;
11042;SDS011;5574;48.786;10.120;2024-03-23T16:44:54;2.40;;;1.73;;
11042;SDS011;5574;48.786;10.120;2024-03-23T16:47:35;2.77;;;1.90;;
11042;SDS011;5574;48.786;10.120;2024-03-23T16:50:16;1.40;;;1.30;;
11042;SDS011;5574;48.786;10.120;2024-03-23T16:52:57;2.00;;;1.80;;
11042;SDS011;5574;48.786;10.120;2024-03-23T16:55:44;1.73;;;1.00;;
11042;SDS011;5574;48.786;10.120;2024-03-23T16:58:27;0.97;;;0.83;;
11042;SDS011;5574;48.786;10.120;2024-03-23T17:01:17;1.47;;;0.70;;
11042;SDS011;5574;48.786;10.120;2024-03-23T17:04:00;3.90;;;1.00;;
11042;SDS011;5574;48.786;10.120;2024-03-23T17:06:41;0.97;;;0.53;;
11042;SDS011;5574;48.786;10.120;2024-03-23T17:09:23;2.13;;;1.00;;
11042;SDS011;5574;48.786;10.120;2024-03-23T17:12:08;2.07;;;0.87;;
11042;SDS011;5574;48.786;10.120;2024-03-23T17:14:49;2.27;;;1.13;;
11042;SDS011;5574;48.786;10.120;2024-03-23T17:17:32;1.50;;;1.00;;